Airport View

Enter AWOS ICAO identifier for current METAR.

ex. KFNL

KMRB 210053Z 00000KT 10SM CLR 18/12 A3021 RMK AO2 SLP227 T01830117

21 Sep 2019 01:18

Frequency: 119.925

Phone: 304-264-0988,

Other Area AWOS: KOKV - KHGR - KJYO - KFDK

TAF KMRB 202320Z 2100/2124 VRB03KT P6SM FEW250 FM210300 VRB03KT P6SM FEW050 FEW250 FM211500 18004KT P6SM FEW050 SCT250